sensor_id;sensor_type;location;lat;lon;timestamp;pressure;altitude;pressure_sealevel;temperature;humidity
32033;BME280;31720;52.638;9.216;2024-01-27T00:02:27;102769.75;;;5.75;100.00
32033;BME280;31720;52.638;9.216;2024-01-27T00:05:28;102756.69;;;5.82;100.00
32033;BME280;31720;52.638;9.216;2024-01-27T00:08:31;102770.63;;;5.77;100.00
32033;BME280;31720;52.638;9.216;2024-01-27T00:11:32;102773.22;;;5.71;100.00
32033;BME280;31720;52.638;9.216;2024-01-27T00:14:37;102775.81;;;5.58;100.00
32033;BME280;31720;52.638;9.216;2024-01-27T00:17:39;102774.97;;;5.61;100.00
32033;BME280;31720;52.638;9.216;2024-01-27T00:20:40;102788.00;;;5.53;100.00
32033;BME280;31720;52.638;9.216;2024-01-27T00:23:43;102785.41;;;5.56;100.00
32033;BME280;31720;52.638;9.216;2024-01-27T00:26:44;102787.09;;;5.30;100.00
32033;BME280;31720;52.638;9.216;2024-01-27T00:29:46;102786.22;;;5.22;100.00
32033;BME280;31720;52.638;9.216;2024-01-27T00:32:47;102794.97;;;5.36;100.00
32033;BME280;31720;52.638;9.216;2024-01-27T00:35:48;102799.28;;;5.32;100.00
32033;BME280;31720;52.638;9.216;2024-01-27T00:38:51;102801.88;;;5.29;100.00
32033;BME280;31720;52.638;9.216;2024-01-27T00:41:52;102808.81;;;5.21;100.00
32033;BME280;31720;52.638;9.216;2024-01-27T00:44:55;102792.31;;;5.24;100.00
32033;BME280;31720;52.638;9.216;2024-01-27T00:47:56;102790.59;;;5.27;100.00
32033;BME280;31720;52.638;9.216;2024-01-27T00:50:57;102794.00;;;5.03;100.00
32033;BME280;31720;52.638;9.216;2024-01-27T00:54:00;102799.22;;;5.13;100.00
32033;BME280;31720;52.638;9.216;2024-01-27T00:57:02;102815.72;;;4.98;100.00
32033;BME280;31720;52.638;9.216;2024-01-27T01:00:04;102816.56;;;4.91;100.00
32033;BME280;31720;52.638;9.216;2024-01-27T01:03:06;102820.06;;;5.02;100.00
32033;BME280;31720;52.638;9.216;2024-01-27T01:06:08;102816.63;;;5.04;100.00
32033;BME280;31720;52.638;9.216;2024-01-27T01:09:10;102817.50;;;5.09;100.00
32033;BME280;31720;52.638;9.216;2024-01-27T01:12:12;102820.09;;;5.11;100.00
32033;BME280;31720;52.638;9.216;2024-01-27T01:15:15;102832.22;;;4.98;100.00
32033;BME280;31720;52.638;9.216;2024-01-27T01:18:16;102825.28;;;5.02;100.00
32033;BME280;31720;52.638;9.216;2024-01-27T01:21:17;102830.44;;;4.94;100.00
32033;BME280;31720;52.638;9.216;2024-01-27T01:24:20;102830.44;;;4.90;100.00
32033;BME280;31720;52.638;9.216;2024-01-27T01:27:21;102840.78;;;4.70;100.00
32033;BME280;31720;52.638;9.216;2024-01-27T01:30:23;102851.13;;;4.56;100.00
32033;BME280;31720;52.638;9.216;2024-01-27T01:33:24;102840.72;;;4.62;100.00
32033;BME280;31720;52.638;9.216;2024-01-27T01:36:25;102850.19;;;4.45;100.00
32033;BME280;31720;52.638;9.216;2024-01-27T01:39:28;102848.44;;;4.42;100.00
32033;BME280;31720;52.638;9.216;2024-01-27T01:42:29;102846.75;;;4.52;100.00
32033;BME280;31720;52.638;9.216;2024-01-27T01:45:31;102843.25;;;4.42;100.00
32033;BME280;31720;52.638;9.216;2024-01-27T01:48:32;102845.91;;;4.54;100.00
32033;BME280;31720;52.638;9.216;2024-01-27T01:51:34;102843.25;;;4.41;100.00
32033;BME280;31720;52.638;9.216;2024-01-27T01:54:37;102847.63;;;4.52;100.00
32033;BME280;31720;52.638;9.216;2024-01-27T01:57:38;102857.09;;;4.37;100.00
32033;BME280;31720;52.638;9.216;2024-01-27T02:00:40;102852.00;;;4.58;100.00
32033;BME280;31720;52.638;9.216;2024-01-27T02:03:51;102865.00;;;4.58;100.00
32033;BME280;31720;52.638;9.216;2024-01-27T02:06:52;102849.38;;;4.58;100.00
32033;BME280;31720;52.638;9.216;2024-01-27T02:09:55;102851.25;;;4.77;100.00
32033;BME280;31720;52.638;9.216;2024-01-27T02:12:57;102851.19;;;4.64;100.00
32033;BME280;31720;52.638;9.216;2024-01-27T02:15:58;102857.22;;;4.60;100.00
32033;BME280;31720;52.638;9.216;2024-01-27T02:19:00;102861.50;;;4.53;100.00
32033;BME280;31720;52.638;9.216;2024-01-27T02:22:01;102854.53;;;4.47;100.00
32033;BME280;31720;52.638;9.216;2024-01-27T02:25:05;102858.06;;;4.57;100.00
32033;BME280;31720;52.638;9.216;2024-01-27T02:28:06;102861.47;;;4.41;100.00
32033;BME280;31720;52.638;9.216;2024-01-27T02:31:08;102855.47;;;4.58;100.00
32033;BME280;31720;52.638;9.216;2024-01-27T02:34:09;102858.91;;;4.53;100.00
32033;BME280;31720;52.638;9.216;2024-01-27T02:37:10;102858.00;;;4.49;100.00
32033;BME280;31720;52.638;9.216;2024-01-27T02:40:13;102863.22;;;4.49;100.00
32033;BME280;31720;52.638;9.216;2024-01-27T02:43:14;102864.91;;;4.37;100.00
32033;BME280;31720;52.638;9.216;2024-01-27T02:46:16;102864.00;;;4.33;100.00
32033;BME280;31720;52.638;9.216;2024-01-27T02:49:18;102873.59;;;4.45;100.00
32033;BME280;31720;52.638;9.216;2024-01-27T02:52:20;102871.84;;;4.39;100.00
32033;BME280;31720;52.638;9.216;2024-01-27T02:55:23;102875.41;;;4.50;100.00
32033;BME280;31720;52.638;9.216;2024-01-27T02:58:24;102880.56;;;4.47;100.00
32033;BME280;31720;52.638;9.216;2024-01-27T03:01:25;102873.63;;;4.49;100.00
32033;BME280;31720;52.638;9.216;2024-01-27T03:04:27;102872.75;;;4.41;100.00
32033;BME280;31720;52.638;9.216;2024-01-27T03:07:28;102883.19;;;4.47;100.00
32033;BME280;31720;52.638;9.216;2024-01-27T03:10:31;102876.22;;;4.43;100.00
32033;BME280;31720;52.638;9.216;2024-01-27T03:13:32;102883.91;;;4.26;100.00
32033;BME280;31720;52.638;9.216;2024-01-27T03:16:33;102882.16;;;4.25;100.00
32033;BME280;31720;52.638;9.216;2024-01-27T03:19:35;102882.13;;;4.22;100.00
32033;BME280;31720;52.638;9.216;2024-01-27T03:22:37;102876.88;;;4.16;100.00
32033;BME280;31720;52.638;9.216;2024-01-27T03:25:41;102876.13;;;4.31;100.00
32033;BME280;31720;52.638;9.216;2024-01-27T03:28:43;102881.38;;;4.39;100.00
32033;BME280;31720;52.638;9.216;2024-01-27T03:31:44;102884.00;;;4.40;100.00
32033;BME280;31720;52.638;9.216;2024-01-27T03:34:45;102883.03;;;4.23;100.00
32033;BME280;31720;52.638;9.216;2024-01-27T03:37:47;102884.84;;;4.38;100.00
32033;BME280;31720;52.638;9.216;2024-01-27T03:40:50;102875.25;;;4.30;100.00
32033;BME280;31720;52.638;9.216;2024-01-27T03:43:52;102885.59;;;4.18;100.00
32033;BME280;31720;52.638;9.216;2024-01-27T03:46:53;102888.31;;;4.35;100.00
32033;BME280;31720;52.638;9.216;2024-01-27T03:49:54;102891.69;;;4.25;100.00
32033;BME280;31720;52.638;9.216;2024-01-27T03:52:56;102900.34;;;4.19;100.00
32033;BME280;31720;52.638;9.216;2024-01-27T03:55:58;102904.75;;;4.31;100.00
32033;BME280;31720;52.638;9.216;2024-01-27T03:59:02;102902.25;;;4.42;100.00
32033;BME280;31720;52.638;9.216;2024-01-27T04:02:06;102902.91;;;4.15;100.00
32033;BME280;31720;52.638;9.216;2024-01-27T04:05:07;102898.59;;;4.20;100.00
32033;BME280;31720;52.638;9.216;2024-01-27T04:08:09;102907.78;;;3.79;100.00
32033;BME280;31720;52.638;9.216;2024-01-27T04:11:19;102923.41;;;3.81;100.00
32033;BME280;31720;52.638;9.216;2024-01-27T04:14:21;102919.06;;;3.78;100.00
32033;BME280;31720;52.638;9.216;2024-01-27T04:17:23;102911.31;;;3.83;100.00
32033;BME280;31720;52.638;9.216;2024-01-27T04:20:24;102904.50;;;3.96;100.00
32033;BME280;31720;52.638;9.216;2024-01-27T04:23:25;102907.78;;;3.81;100.00
32033;BME280;31720;52.638;9.216;2024-01-27T04:26:28;102902.81;;;4.04;100.00
32033;BME280;31720;52.638;9.216;2024-01-27T04:29:29;102919.22;;;3.95;100.00
32033;BME280;31720;52.638;9.216;2024-01-27T04:32:31;102920.19;;;4.05;100.00
32033;BME280;31720;52.638;9.216;2024-01-27T04:35:32;102922.69;;;3.97;100.00
32033;BME280;31720;52.638;9.216;2024-01-27T04:38:33;102918.47;;;4.10;100.00
32033;BME280;31720;52.638;9.216;2024-01-27T04:41:41;102923.66;;;4.05;100.00
32033;BME280;31720;52.638;9.216;2024-01-27T04:44:42;102924.56;;;4.12;100.00
32033;BME280;31720;52.638;9.216;2024-01-27T04:47:44;102937.47;;;4.03;100.00
32033;BME280;31720;52.638;9.216;2024-01-27T04:50:45;102936.69;;;4.12;100.00
32033;BME280;31720;52.638;9.216;2024-01-27T04:53:47;102934.91;;;4.04;100.00
32033;BME280;31720;52.638;9.216;2024-01-27T04:56:49;102927.16;;;4.11;100.00
32033;BME280;31720;52.638;9.216;2024-01-27T04:59:51;102935.88;;;4.14;100.00
32033;BME280;31720;52.638;9.216;2024-01-27T05:02:52;102947.97;;;4.12;100.00
32033;BME280;31720;52.638;9.216;2024-01-27T05:05:54;102951.44;;;4.13;100.00
32033;BME280;31720;52.638;9.216;2024-01-27T05:08:55;102956.69;;;4.16;100.00
32033;BME280;31720;52.638;9.216;2024-01-27T05:11:59;102948.06;;;4.20;100.00
32033;BME280;31720;52.638;9.216;2024-01-27T05:15:00;102953.19;;;4.09;100.00
32033;BME280;31720;52.638;9.216;2024-01-27T05:18:02;102961.81;;;4.05;100.00
32033;BME280;31720;52.638;9.216;2024-01-27T05:21:04;102964.41;;;4.06;100.00
32033;BME280;31720;52.638;9.216;2024-01-27T05:24:05;102962.63;;;4.01;100.00
32033;BME280;31720;52.638;9.216;2024-01-27T05:27:08;102959.13;;;3.96;100.00
32033;BME280;31720;52.638;9.216;2024-01-27T05:30:10;102971.25;;;3.95;100.00
32033;BME280;31720;52.638;9.216;2024-01-27T05:33:11;102968.69;;;4.01;100.00
32033;BME280;31720;52.638;9.216;2024-01-27T05:36:13;102978.28;;;4.05;100.00
32033;BME280;31720;52.638;9.216;2024-01-27T05:39:14;102979.88;;;3.94;100.00
32033;BME280;31720;52.638;9.216;2024-01-27T05:42:17;102974.63;;;3.90;100.00
32033;BME280;31720;52.638;9.216;2024-01-27T05:45:18;102968.53;;;3.83;100.00
32033;BME280;31720;52.638;9.216;2024-01-27T05:48:20;102980.66;;;3.86;100.00
32033;BME280;31720;52.638;9.216;2024-01-27T05:51:21;102978.91;;;3.83;100.00
32033;BME280;31720;52.638;9.216;2024-01-27T05:54:24;102981.38;;;3.72;100.00
32033;BME280;31720;52.638;9.216;2024-01-27T05:57:26;102969.25;;;3.70;100.00
32033;BME280;31720;52.638;9.216;2024-01-27T06:00:28;102989.22;;;3.74;100.00
32033;BME280;31720;52.638;9.216;2024-01-27T06:03:29;102988.34;;;3.73;100.00
32033;BME280;31720;52.638;9.216;2024-01-27T06:06:31;102990.97;;;3.73;100.00
32033;BME280;31720;52.638;9.216;2024-01-27T06:09:32;102994.44;;;3.75;100.00
32033;BME280;31720;52.638;9.216;2024-01-27T06:12:35;102993.41;;;3.60;100.00
32033;BME280;31720;52.638;9.216;2024-01-27T06:15:37;102987.38;;;3.65;100.00
32033;BME280;31720;52.638;9.216;2024-01-27T06:18:38;102999.47;;;3.63;100.00
32033;BME280;31720;52.638;9.216;2024-01-27T06:21:39;103003.03;;;3.70;100.00
32033;BME280;31720;52.638;9.216;2024-01-27T06:24:42;103001.22;;;3.63;100.00
32033;BME280;31720;52.638;9.216;2024-01-27T06:27:45;103013.34;;;3.62;100.00
32033;BME280;31720;52.638;9.216;2024-01-27T06:30:46;103015.88;;;3.54;100.00
32033;BME280;31720;52.638;9.216;2024-01-27T06:33:48;103028.97;;;3.64;100.00
32033;BME280;31720;52.638;9.216;2024-01-27T06:36:49;103019.47;;;3.67;100.00
32033;BME280;31720;52.638;9.216;2024-01-27T06:39:51;103018.59;;;3.67;100.00
32033;BME280;31720;52.638;9.216;2024-01-27T06:42:53;103012.53;;;3.65;100.00
32033;BME280;31720;52.638;9.216;2024-01-27T06:45:55;103015.88;;;3.56;100.00
32033;BME280;31720;52.638;9.216;2024-01-27T06:48:57;103014.78;;;3.39;100.00
32033;BME280;31720;52.638;9.216;2024-01-27T06:51:58;103016.38;;;3.27;100.00
32033;BME280;31720;52.638;9.216;2024-01-27T06:55:00;103016.38;;;3.27;100.00
32033;BME280;31720;52.638;9.216;2024-01-27T06:58:03;103026.97;;;3.43;100.00
32033;BME280;31720;52.638;9.216;2024-01-27T07:01:06;103031.34;;;3.45;100.00
32033;BME280;31720;52.638;9.216;2024-01-27T07:04:08;103034.88;;;3.52;100.00
32033;BME280;31720;52.638;9.216;2024-01-27T07:07:10;103033.09;;;3.49;100.00
32033;BME280;31720;52.638;9.216;2024-01-27T07:10:11;103043.56;;;3.54;100.00
32033;BME280;31720;52.638;9.216;2024-01-27T07:13:14;103050.53;;;3.56;100.00
32033;BME280;31720;52.638;9.216;2024-01-27T07:16:15;103047.09;;;3.58;100.00
32033;BME280;31720;52.638;9.216;2024-01-27T07:19:16;103055.75;;;3.58;100.00
32033;BME280;31720;52.638;9.216;2024-01-27T07:22:18;103055.56;;;3.43;100.00
32033;BME280;31720;52.638;9.216;2024-01-27T07:25:19;103050.31;;;3.38;100.00
32033;BME280;31720;52.638;9.216;2024-01-27T07:28:22;103060.75;;;3.43;100.00
32033;BME280;31720;52.638;9.216;2024-01-27T07:31:23;103076.41;;;3.47;100.00
32033;BME280;31720;52.638;9.216;2024-01-27T07:34:26;103072.97;;;3.48;100.00
32033;BME280;31720;52.638;9.216;2024-01-27T07:37:28;103083.47;;;3.58;100.00
32033;BME280;31720;52.638;9.216;2024-01-27T07:40:29;103080.88;;;3.56;100.00
32033;BME280;31720;52.638;9.216;2024-01-27T07:43:32;103086.94;;;3.58;100.00
32033;BME280;31720;52.638;9.216;2024-01-27T07:46:33;103089.50;;;3.53;100.00
32033;BME280;31720;52.638;9.216;2024-01-27T07:49:35;103090.41;;;3.55;100.00
32033;BME280;31720;52.638;9.216;2024-01-27T07:52:36;103086.13;;;3.61;100.00
32033;BME280;31720;52.638;9.216;2024-01-27T07:55:37;103083.47;;;3.58;100.00
32033;BME280;31720;52.638;9.216;2024-01-27T07:58:40;103090.47;;;3.63;100.00
32033;BME280;31720;52.638;9.216;2024-01-27T08:01:42;103090.59;;;3.71;100.00
32033;BME280;31720;52.638;9.216;2024-01-27T08:04:43;103085.38;;;3.69;100.00
32033;BME280;31720;52.638;9.216;2024-01-27T08:07:44;103097.44;;;3.64;100.00
32033;BME280;31720;52.638;9.216;2024-01-27T08:10:46;103094.09;;;3.73;100.00
32033;BME280;31720;52.638;9.216;2024-01-27T08:13:48;103096.78;;;3.80;100.00
32033;BME280;31720;52.638;9.216;2024-01-27T08:16:50;103099.06;;;3.56;100.00
32033;BME280;31720;52.638;9.216;2024-01-27T08:19:51;103094.09;;;3.74;100.00
32033;BME280;31720;52.638;9.216;2024-01-27T08:22:53;103095.72;;;3.66;100.00
32033;BME280;31720;52.638;9.216;2024-01-27T08:25:54;103092.25;;;3.66;100.00
32033;BME280;31720;52.638;9.216;2024-01-27T08:28:57;103087.88;;;3.62;100.00
32033;BME280;31720;52.638;9.216;2024-01-27T08:31:58;103094.75;;;3.58;100.00
32033;BME280;31720;52.638;9.216;2024-01-27T08:35:01;103106.19;;;3.71;100.00
32033;BME280;31720;52.638;9.216;2024-01-27T08:38:02;103106.19;;;3.72;100.00
32033;BME280;31720;52.638;9.216;2024-01-27T08:41:04;103116.47;;;3.63;100.00
32033;BME280;31720;52.638;9.216;2024-01-27T08:44:06;103116.66;;;3.75;100.00
32033;BME280;31720;52.638;9.216;2024-01-27T08:47:08;103123.38;;;3.60;100.00
32033;BME280;31720;52.638;9.216;2024-01-27T08:50:09;103125.13;;;3.62;100.00
32033;BME280;31720;52.638;9.216;2024-01-27T08:53:11;103127.00;;;3.71;100.00
32033;BME280;31720;52.638;9.216;2024-01-27T08:56:13;103134.91;;;3.80;100.00
32033;BME280;31720;52.638;9.216;2024-01-27T08:59:16;103137.75;;;3.97;100.00
32033;BME280;31720;52.638;9.216;2024-01-27T09:02:17;103138.94;;;4.26;100.00
32033;BME280;31720;52.638;9.216;2024-01-27T09:05:19;103125.88;;;4.20;100.00
32033;BME280;31720;52.638;9.216;2024-01-27T09:08:20;103133.69;;;4.22;100.00
32033;BME280;31720;52.638;9.216;2024-01-27T09:11:21;103138.13;;;4.29;100.00
32033;BME280;31720;52.638;9.216;2024-01-27T09:14:25;103138.34;;;4.49;100.00
32033;BME280;31720;52.638;9.216;2024-01-27T09:17:26;103138.41;;;4.58;100.00
32033;BME280;31720;52.638;9.216;2024-01-27T09:20:28;103148.00;;;4.62;100.00
32033;BME280;31720;52.638;9.216;2024-01-27T09:23:29;103137.72;;;4.73;100.00
32033;BME280;31720;52.638;9.216;2024-01-27T09:26:30;103152.41;;;4.66;100.00
32033;BME280;31720;52.638;9.216;2024-01-27T09:29:33;103154.13;;;4.66;100.00
32033;BME280;31720;52.638;9.216;2024-01-27T09:32:34;103155.00;;;4.66;100.00
32033;BME280;31720;52.638;9.216;2024-01-27T09:35:36;103168.97;;;4.73;100.00
32033;BME280;31720;52.638;9.216;2024-01-27T09:38:37;103168.13;;;4.75;100.00
32033;BME280;31720;52.638;9.216;2024-01-27T09:41:38;103171.50;;;4.65;100.00
32033;BME280;31720;52.638;9.216;2024-01-27T09:44:43;103181.22;;;4.81;100.00
32033;BME280;31720;52.638;9.216;2024-01-27T09:47:45;103179.50;;;4.85;100.00
32033;BME280;31720;52.638;9.216;2024-01-27T09:50:48;103182.19;;;4.93;100.00
32033;BME280;31720;52.638;9.216;2024-01-27T09:53:50;103179.59;;;4.93;100.00
32033;BME280;31720;52.638;9.216;2024-01-27T09:56:52;103185.75;;;5.02;100.00
32033;BME280;31720;52.638;9.216;2024-01-27T09:59:56;103183.19;;;5.08;100.00
32033;BME280;31720;52.638;9.216;2024-01-27T10:02:58;103187.59;;;5.16;100.00
32033;BME280;31720;52.638;9.216;2024-01-27T10:06:00;103176.25;;;5.12;100.00
32033;BME280;31720;52.638;9.216;2024-01-27T10:09:02;103188.50;;;5.21;100.00
32033;BME280;31720;52.638;9.216;2024-01-27T10:12:04;103189.38;;;5.21;100.00
32033;BME280;31720;52.638;9.216;2024-01-27T10:15:18;103191.16;;;5.22;100.00
32033;BME280;31720;52.638;9.216;2024-01-27T10:18:19;103178.13;;;5.22;100.00
32033;BME280;31720;52.638;9.216;2024-01-27T10:21:22;103180.72;;;5.22;100.00
32033;BME280;31720;52.638;9.216;2024-01-27T10:24:26;103179.91;;;5.35;100.00
32033;BME280;31720;52.638;9.216;2024-01-27T10:27:27;103176.47;;;5.37;100.00
32033;BME280;31720;52.638;9.216;2024-01-27T10:30:30;103178.25;;;5.42;100.00
32033;BME280;31720;52.638;9.216;2024-01-27T10:33:31;103166.88;;;5.34;100.00
32033;BME280;31720;52.638;9.216;2024-01-27T10:36:39;103167.00;;;5.54;100.00
32033;BME280;31720;52.638;9.216;2024-01-27T10:39:41;103159.28;;;5.68;100.00
32033;BME280;31720;52.638;9.216;2024-01-27T10:42:43;103158.41;;;5.67;100.00
32033;BME280;31720;52.638;9.216;2024-01-27T10:45:46;103172.16;;;5.43;100.00
32033;BME280;31720;52.638;9.216;2024-01-27T10:48:50;103166.13;;;5.49;100.00
32033;BME280;31720;52.638;9.216;2024-01-27T10:51:53;103154.91;;;5.60;100.00
32033;BME280;31720;52.638;9.216;2024-01-27T10:54:58;103142.75;;;5.66;100.00
32033;BME280;31720;52.638;9.216;2024-01-27T10:58:01;103156.72;;;5.72;100.00
32033;BME280;31720;52.638;9.216;2024-01-27T11:01:04;103150.66;;;5.79;100.00
32033;BME280;31720;52.638;9.216;2024-01-27T11:04:08;103157.63;;;5.82;100.00
32033;BME280;31720;52.638;9.216;2024-01-27T11:07:13;103163.72;;;5.84;100.00
32033;BME280;31720;52.638;9.216;2024-01-27T11:10:15;103156.00;;;5.99;100.00
32033;BME280;31720;52.638;9.216;2024-01-27T11:13:16;103162.13;;;6.00;100.00
32033;BME280;31720;52.638;9.216;2024-01-27T11:16:19;103169.16;;;6.18;100.00
32033;BME280;31720;52.638;9.216;2024-01-27T11:19:21;103168.28;;;6.20;100.00
32033;BME280;31720;52.638;9.216;2024-01-27T11:22:24;103181.41;;;6.42;100.00
32033;BME280;31720;52.638;9.216;2024-01-27T11:25:27;103175.31;;;6.49;100.00
32033;BME280;31720;52.638;9.216;2024-01-27T11:28:28;103172.75;;;6.67;100.00
32033;BME280;31720;52.638;9.216;2024-01-27T11:31:31;103169.31;;;6.77;100.00
32033;BME280;31720;52.638;9.216;2024-01-27T11:34:42;103158.84;;;6.70;100.00
32033;BME280;31720;52.638;9.216;2024-01-27T11:37:44;103158.84;;;6.85;100.00
32033;BME280;31720;52.638;9.216;2024-01-27T11:40:45;103152.75;;;6.77;100.00
32033;BME280;31720;52.638;9.216;2024-01-27T11:43:51;103171.06;;;6.86;100.00
32033;BME280;31720;52.638;9.216;2024-01-27T11:46:54;103176.31;;;7.04;100.00
32033;BME280;31720;52.638;9.216;2024-01-27T11:49:55;103166.69;;;7.08;100.00
32033;BME280;31720;52.638;9.216;2024-01-27T11:52:57;103164.09;;;7.16;100.00
32033;BME280;31720;52.638;9.216;2024-01-27T11:55:58;103161.47;;;7.11;100.00
32033;BME280;31720;52.638;9.216;2024-01-27T11:59:01;103162.34;;;6.95;100.00
32033;BME280;31720;52.638;9.216;2024-01-27T12:02:04;103168.44;;;7.03;100.00
32033;BME280;31720;52.638;9.216;2024-01-27T12:05:06;103176.28;;;7.12;100.00
32033;BME280;31720;52.638;9.216;2024-01-27T12:08:09;103181.53;;;7.18;100.00
32033;BME280;31720;52.638;9.216;2024-01-27T12:11:10;103185.00;;;7.38;100.00
32033;BME280;31720;52.638;9.216;2024-01-27T12:14:11;103186.72;;;7.58;100.00
32033;BME280;31720;52.638;9.216;2024-01-27T12:17:15;103187.59;;;7.69;100.00
32033;BME280;31720;52.638;9.216;2024-01-27T12:20:16;103200.66;;;7.78;100.00
32033;BME280;31720;52.638;9.216;2024-01-27T12:23:18;103190.19;;;7.74;100.00
32033;BME280;31720;52.638;9.216;2024-01-27T12:26:20;103174.47;;;7.80;100.00
32033;BME280;31720;52.638;9.216;2024-01-27T12:29:21;103191.09;;;7.63;100.00
32033;BME280;31720;52.638;9.216;2024-01-27T12:32:24;103169.25;;;7.77;100.00
32033;BME280;31720;52.638;9.216;2024-01-27T12:35:26;103168.34;;;7.84;100.00
32033;BME280;31720;52.638;9.216;2024-01-27T12:38:29;103166.56;;;7.94;100.00
32033;BME280;31720;52.638;9.216;2024-01-27T12:41:30;103179.69;;;7.87;100.00
32033;BME280;31720;52.638;9.216;2024-01-27T12:44:33;103180.53;;;7.94;100.00
32033;BME280;31720;52.638;9.216;2024-01-27T12:47:35;103180.50;;;8.05;100.00
32033;BME280;31720;52.638;9.216;2024-01-27T12:50:37;103175.25;;;8.05;100.00
32033;BME280;31720;52.638;9.216;2024-01-27T12:53:39;103177.03;;;7.94;100.00
32033;BME280;31720;52.638;9.216;2024-01-27T12:56:43;103179.66;;;7.92;100.00
32033;BME280;31720;52.638;9.216;2024-01-27T12:59:45;103173.59;;;7.79;100.00
32033;BME280;31720;52.638;9.216;2024-01-27T13:02:47;103164.84;;;7.83;100.00
32033;BME280;31720;52.638;9.216;2024-01-27T13:05:49;103170.06;;;7.88;100.00
32033;BME280;31720;52.638;9.216;2024-01-27T13:08:50;103167.47;;;7.88;100.00
32033;BME280;31720;52.638;9.216;2024-01-27T13:11:52;103166.63;;;7.78;100.00
32033;BME280;31720;52.638;9.216;2024-01-27T13:14:53;103165.72;;;7.87;100.00
32033;BME280;31720;52.638;9.216;2024-01-27T13:17:56;103160.44;;;8.01;100.00
32033;BME280;31720;52.638;9.216;2024-01-27T13:20:58;103159.59;;;7.93;100.00
32033;BME280;31720;52.638;9.216;2024-01-27T13:23:59;103151.69;;;8.03;100.00
32033;BME280;31720;52.638;9.216;2024-01-27T13:27:01;103155.16;;;8.04;100.00
32033;BME280;31720;52.638;9.216;2024-01-27T13:30:03;103155.19;;;8.02;100.00
32033;BME280;31720;52.638;9.216;2024-01-27T13:33:06;103151.69;;;8.03;100.00
32033;BME280;31720;52.638;9.216;2024-01-27T13:36:07;103164.81;;;8.00;100.00
32033;BME280;31720;52.638;9.216;2024-01-27T13:39:08;103162.22;;;7.96;100.00
32033;BME280;31720;52.638;9.216;2024-01-27T13:42:10;103163.91;;;8.06;100.00
32033;BME280;31720;52.638;9.216;2024-01-27T13:45:11;103153.41;;;8.07;100.00
32033;BME280;31720;52.638;9.216;2024-01-27T13:48:14;103166.53;;;8.01;100.00
32033;BME280;31720;52.638;9.216;2024-01-27T13:51:15;103170.84;;;8.14;100.00
32033;BME280;31720;52.638;9.216;2024-01-27T13:54:17;103170.88;;;8.07;100.00
32033;BME280;31720;52.638;9.216;2024-01-27T13:57:18;103162.19;;;8.00;100.00
32033;BME280;31720;52.638;9.216;2024-01-27T14:00:20;103169.16;;;8.04;100.00
32033;BME280;31720;52.638;9.216;2024-01-27T14:03:23;103170.91;;;7.99;100.00
32033;BME280;31720;52.638;9.216;2024-01-27T14:06:24;103180.53;;;7.97;100.00
32033;BME280;31720;52.638;9.216;2024-01-27T14:09:25;103176.13;;;8.05;100.00
32033;BME280;31720;52.638;9.216;2024-01-27T14:12:27;103176.19;;;7.87;100.00
32033;BME280;31720;52.638;9.216;2024-01-27T14:15:29;103175.31;;;7.96;100.00
32033;BME280;31720;52.638;9.216;2024-01-27T14:18:32;103185.78;;;7.91;100.00
32033;BME280;31720;52.638;9.216;2024-01-27T14:21:33;103177.09;;;7.81;100.00
32033;BME280;31720;52.638;9.216;2024-01-27T14:24:35;103173.59;;;7.75;100.00
32033;BME280;31720;52.638;9.216;2024-01-27T14:27:37;103163.13;;;7.79;100.00
32033;BME280;31720;52.638;9.216;2024-01-27T14:30:38;103171.81;;;7.92;100.00
32033;BME280;31720;52.638;9.216;2024-01-27T14:33:41;103158.78;;;7.78;100.00
32033;BME280;31720;52.638;9.216;2024-01-27T14:36:42;103174.47;;;7.74;100.00
32033;BME280;31720;52.638;9.216;2024-01-27T14:39:45;103179.72;;;7.74;100.00
32033;BME280;31720;52.638;9.216;2024-01-27T14:42:47;103174.50;;;7.66;100.00
32033;BME280;31720;52.638;9.216;2024-01-27T14:45:50;103173.59;;;7.76;100.00
32033;BME280;31720;52.638;9.216;2024-01-27T14:48:52;103172.72;;;7.71;100.00
32033;BME280;31720;52.638;9.216;2024-01-27T14:51:54;103173.59;;;7.75;100.00
32033;BME280;31720;52.638;9.216;2024-01-27T14:54:55;103175.41;;;7.59;100.00
32033;BME280;31720;52.638;9.216;2024-01-27T14:57:57;103178.88;;;7.53;100.00
32033;BME280;31720;52.638;9.216;2024-01-27T15:00:58;103178.00;;;7.57;100.00
32033;BME280;31720;52.638;9.216;2024-01-27T15:04:01;103178.88;;;7.52;100.00
32033;BME280;31720;52.638;9.216;2024-01-27T15:07:02;103185.88;;;7.47;100.00
32033;BME280;31720;52.638;9.216;2024-01-27T15:10:05;103189.34;;;7.44;100.00
32033;BME280;31720;52.638;9.216;2024-01-27T15:13:06;103198.06;;;7.48;100.00
32033;BME280;31720;52.638;9.216;2024-01-27T15:16:08;103200.69;;;7.38;100.00
32033;BME280;31720;52.638;9.216;2024-01-27T15:19:10;103195.47;;;7.34;100.00
32033;BME280;31720;52.638;9.216;2024-01-27T15:22:12;103190.22;;;7.35;100.00
32033;BME280;31720;52.638;9.216;2024-01-27T15:25:13;103192.88;;;7.32;100.00
32033;BME280;31720;52.638;9.216;2024-01-27T15:28:15;103191.09;;;7.25;100.00
32033;BME280;31720;52.638;9.216;2024-01-27T15:31:16;103178.91;;;7.23;100.00
32033;BME280;31720;52.638;9.216;2024-01-27T15:34:19;103179.78;;;7.19;100.00
32033;BME280;31720;52.638;9.216;2024-01-27T15:37:20;103176.28;;;7.12;100.00
32033;BME280;31720;52.638;9.216;2024-01-27T15:40:21;103183.25;;;7.07;100.00
32033;BME280;31720;52.638;9.216;2024-01-27T15:43:25;103177.16;;;7.06;100.00
32033;BME280;31720;52.638;9.216;2024-01-27T15:46:27;103182.38;;;6.97;100.00
32033;BME280;31720;52.638;9.216;2024-01-27T15:49:30;103185.88;;;6.98;100.00
32033;BME280;31720;52.638;9.216;2024-01-27T15:52:31;103182.41;;;6.91;100.00